Time;durP1;ratioP1;P1;durP2;ratioP2;P2;SDS_P1;SDS_P2;PMS_P1;PMS_P2;Temp;Humidity;BMP_temperature;BMP_pressure;BME280_temperature;BME280_humidity;BME280_pressure;Samples;Min_cycle;Max_cycle;Signal;HPM_P1;HPM_P2
2022/07/24 00:00:40;;;;;;;;;;;;;;;29.94;50.18;98882.09;2089536;28;20744;-51
2022/07/24 00:01:41;;;;;;;;;;;;;;;29.77;51.03;98885.91;2088581;28;20011;-54
2022/07/24 00:02:42;;;;;;;;;;;;;;;29.68;51.86;98878.53;2088497;28;19978;-57
2022/07/24 00:03:44;;;;;;;;;;;;;;;29.59;52.13;98880.94;2085339;28;20411;-51
2022/07/24 00:04:44;;;;;;;;;;;;;;;29.71;51.20;98877.97;2091472;28;20553;-54
2022/07/24 00:05:47;;;;;;;;;;;;;;;29.80;50.97;98888.09;2090032;28;20001;-52
2022/07/24 00:06:50;;;;;;;;;;;;;;;29.88;50.25;98881.28;2089055;28;19952;-53
2022/07/24 00:07:50;;;;;;;;;;;;;;;29.97;50.26;98885.09;2089006;28;19928;-53
2022/07/24 00:08:52;;;;;;;;;;;;;;;30.01;50.19;98880.75;2087156;28;20672;-54
2022/07/24 00:09:52;;;;;;;;;;;;;;;29.97;50.26;98882.38;2087460;28;19928;-51
2022/07/24 00:10:54;;;;;;;;;;;;;;;29.97;50.75;98885.09;2085931;28;20880;-54
2022/07/24 00:11:55;;;;;;;;;;;;;;;29.97;50.73;98887.03;2090586;28;19932;-54
2022/07/24 00:12:56;;;;;;;;;;;;;;;29.98;50.37;98889.50;2091048;28;20718;-54
2022/07/24 00:13:57;;;;;;;;;;;;;;;29.95;51.08;98887.31;2091267;28;19935;-54
2022/07/24 00:14:58;;;;;;;;;;;;;;;29.88;51.51;98880.47;2091309;28;19931;-53
2022/07/24 00:15:59;;;;;;;;;;;;;;;29.78;51.83;98886.72;2086919;28;20318;-52
2022/07/24 00:17:01;;;;;;;;;;;;;;;29.86;51.19;98888.94;2090006;28;20007;-54
2022/07/24 00:18:01;;;;;;;;;;;;;;;29.92;50.71;98887.88;2090476;28;19924;-52
2022/07/24 00:19:03;;;;;;;;;;;;;;;29.92;50.08;98887.88;2088750;28;19966;-55
2022/07/24 00:20:05;;;;;;;;;;;;;;;29.96;50.09;98891.69;2086429;28;20402;-54
2022/07/24 00:21:08;;;;;;;;;;;;;;;30.03;50.33;98889.50;2090560;28;19928;-54
2022/07/24 00:22:08;;;;;;;;;;;;;;;30.03;50.32;98880.47;2091230;28;19935;-52
2022/07/24 00:23:10;;;;;;;;;;;;;;;30.03;50.46;98889.50;2089211;28;19928;-55
2022/07/24 00:24:10;;;;;;;;;;;;;;;30.05;50.06;98891.94;2085696;28;19928;-54
2022/07/24 00:25:12;;;;;;;;;;;;;;;30.02;50.47;98885.13;2091604;28;20502;-52
2022/07/24 00:26:12;;;;;;;;;;;;;;;30.06;50.16;98888.13;2089598;28;19936;-52
2022/07/24 00:27:14;;;;;;;;;;;;;;;30.08;50.43;98885.13;2091130;28;19924;-54
2022/07/24 00:28:14;;;;;;;;;;;;;;;30.08;50.17;98880.47;2089306;28;19944;-54
2022/07/24 00:29:17;;;;;;;;;;;;;;;30.06;50.62;98888.13;2087845;28;19939;-53
2022/07/24 00:30:17;;;;;;;;;;;;;;;30.03;50.56;98883.19;2089897;28;19928;-53
2022/07/24 00:31:19;;;;;;;;;;;;;;;30.03;50.32;98886.78;2090617;28;20022;-51
2022/07/24 00:32:20;;;;;;;;;;;;;;;30.04;50.57;98882.13;2091429;28;19924;-54
2022/07/24 00:33:22;;;;;;;;;;;;;;;29.99;50.61;98882.09;2091695;28;20007;-53
2022/07/24 00:34:22;;;;;;;;;;;;;;;30.00;50.29;98881.00;2091484;28;20372;-53
2022/07/24 00:35:24;;;;;;;;;;;;;;;30.02;50.16;98882.38;2090778;28;19929;-53
2022/07/24 00:36:26;;;;;;;;;;;;;;;30.03;50.33;98870.38;2084798;28;19936;-55
2022/07/24 00:37:28;;;;;;;;;;;;;;;30.04;50.32;98887.59;2087623;28;19932;-53
2022/07/24 00:38:29;;;;;;;;;;;;;;;30.02;49.96;98879.63;2086179;28;19947;-53
2022/07/24 00:39:30;;;;;;;;;;;;;;;30.04;49.98;98869.25;2089708;28;19928;-55
2022/07/24 00:40:32;;;;;;;;;;;;;;;30.08;50.25;98869.53;2090156;28;19948;-50
2022/07/24 00:41:32;;;;;;;;;;;;;;;30.06;50.47;98867.06;2089408;28;19924;-55
2022/07/24 00:42:34;;;;;;;;;;;;;;;30.11;50.22;98873.63;2091527;28;19928;-54
2022/07/24 00:43:34;;;;;;;;;;;;;;;30.02;50.61;98870.63;2090833;28;20433;-53
2022/07/24 00:44:36;;;;;;;;;;;;;;;30.04;50.42;98872.00;2091946;28;19964;-55
2022/07/24 00:45:37;;;;;;;;;;;;;;;29.97;50.71;98874.16;2091721;28;19955;-53
2022/07/24 00:46:39;;;;;;;;;;;;;;;30.01;50.66;98869.81;2091611;28;20397;-51
2022/07/24 00:47:40;;;;;;;;;;;;;;;30.02;50.52;98870.63;2091332;28;19928;-50
2022/07/24 00:48:41;;;;;;;;;;;;;;;30.01;50.50;98861.59;2088204;28;19935;-55
2022/07/24 00:49:42;;;;;;;;;;;;;;;30.04;50.33;98862.97;2087482;28;19948;-55
2022/07/24 00:50:44;;;;;;;;;;;;;;;30.03;50.08;98867.63;2090968;28;20859;-55
2022/07/24 00:51:47;;;;;;;;;;;;;;;30.02;49.99;98868.69;2091459;28;20061;-53
2022/07/24 00:52:48;;;;;;;;;;;;;;;30.01;50.31;98858.88;2092141;28;19929;-50
2022/07/24 00:53:49;;;;;;;;;;;;;;;30.03;50.35;98862.16;2086738;28;20307;-52
2022/07/24 00:54:51;;;;;;;;;;;;;;;30.00;50.43;98859.94;2089779;28;19935;-54
2022/07/24 00:55:52;;;;;;;;;;;;;;;29.99;50.56;98861.03;2091161;28;19928;-54
2022/07/24 00:56:54;;;;;;;;;;;;;;;29.99;50.67;98860.22;2092372;28;19982;-50
2022/07/24 00:57:55;;;;;;;;;;;;;;;29.95;50.28;98859.97;2089447;28;20007;-54
2022/07/24 00:58:56;;;;;;;;;;;;;;;29.95;50.23;98870.91;2089846;28;20127;-53
2022/07/24 00:59:57;;;;;;;;;;;;;;;29.88;50.71;98864.06;2091167;28;19936;-53
2022/07/24 01:00:59;;;;;;;;;;;;;;;29.88;50.68;98870.34;2091446;28;19956;-53
2022/07/24 01:01:59;;;;;;;;;;;;;;;29.84;50.82;98861.06;2089728;28;19935;-55
2022/07/24 01:03:01;;;;;;;;;;;;;;;29.84;51.00;98861.06;2092929;28;19929;-54
2022/07/24 01:04:02;;;;;;;;;;;;;;;29.86;50.69;98860.75;2090865;28;19939;-52
2022/07/24 01:05:04;;;;;;;;;;;;;;;29.88;50.73;98864.06;2092422;28;19994;-53
2022/07/24 01:06:06;;;;;;;;;;;;;;;29.90;50.75;98861.88;2091615;28;19952;-53
2022/07/24 01:07:09;;;;;;;;;;;;;;;29.90;50.52;98868.16;2091458;28;20679;-55
2022/07/24 01:08:10;;;;;;;;;;;;;;;29.89;50.39;98861.03;2084686;28;20788;-54
2022/07/24 01:09:11;;;;;;;;;;;;;;;29.89;50.65;98860.22;2087810;28;19928;-53
2022/07/24 01:10:12;;;;;;;;;;;;;;;29.88;50.44;98859.41;2089525;28;20271;-55
2022/07/24 01:11:14;;;;;;;;;;;;;;;29.83;50.91;98859.41;2087806;28;20011;-52
2022/07/24 01:12:15;;;;;;;;;;;;;;;29.87;50.39;98859.69;2087274;28;19935;-51
2022/07/24 01:13:16;;;;;;;;;;;;;;;29.90;50.16;98859.16;2090838;28;20384;-50
2022/07/24 01:14:17;;;;;;;;;;;;;;;29.93;50.07;98856.69;2088705;28;19939;-51
2022/07/24 01:15:19;;;;;;;;;;;;;;;29.88;50.09;98862.13;2088395;28;19928;-56
2022/07/24 01:16:20;;;;;;;;;;;;;;;29.89;50.16;98860.22;2088122;28;19928;-52
2022/07/24 01:17:21;;;;;;;;;;;;;;;29.87;50.15;98863.25;2089062;28;19928;-56
2022/07/24 01:18:22;;;;;;;;;;;;;;;29.93;49.65;98862.16;2090543;28;19928;-51
2022/07/24 01:19:24;;;;;;;;;;;;;;;29.96;49.68;98858.88;2091317;28;20011;-55
2022/07/24 01:20:24;;;;;;;;;;;;;;;29.91;49.86;98852.56;2089177;28;19928;-53
2022/07/24 01:21:27;;;;;;;;;;;;;;;29.93;49.64;98862.16;2089136;28;19985;-55
2022/07/24 01:22:28;;;;;;;;;;;;;;;29.97;49.59;98862.41;2090533;28;19928;-54
2022/07/24 01:23:30;;;;;;;;;;;;;;;29.96;49.48;98847.91;2083785;28;19928;-54
2022/07/24 01:24:31;;;;;;;;;;;;;;;29.98;49.27;98853.13;2089365;28;19928;-52
2022/07/24 01:25:33;;;;;;;;;;;;;;;30.01;49.18;98849.84;2089894;28;20243;-55
2022/07/24 01:26:33;;;;;;;;;;;;;;;29.97;49.39;98851.47;2089829;28;19936;-52
2022/07/24 01:27:35;;;;;;;;;;;;;;;29.93;49.32;98853.13;2092690;28;20422;-54
2022/07/24 01:28:36;;;;;;;;;;;;;;;29.88;49.21;98855.84;2091078;28;19932;-55
2022/07/24 01:29:37;;;;;;;;;;;;;;;29.85;49.32;98854.47;2089730;28;19929;-52
2022/07/24 01:30:40;;;;;;;;;;;;;;;29.89;49.14;98855.56;2081825;28;19939;-53
2022/07/24 01:31:41;;;;;;;;;;;;;;;29.90;48.80;98857.22;2077718;28;19935;-55
2022/07/24 01:32:42;;;;;;;;;;;;;;;29.92;49.00;98852.31;2082493;28;20899;-53
2022/07/24 01:33:44;;;;;;;;;;;;;;;29.94;48.77;98852.03;2081464;28;19939;-53
2022/07/24 01:34:44;;;;;;;;;;;;;;;29.94;48.83;98852.84;2083602;28;19928;-53
2022/07/24 01:35:46;;;;;;;;;;;;;;;29.93;48.92;98850.41;2082849;28;19929;-54
2022/07/24 01:36:48;;;;;;;;;;;;;;;29.92;48.90;98846.84;2083527;28;19932;-54
2022/07/24 01:37:50;;;;;;;;;;;;;;;29.86;49.23;98853.38;2082895;28;20452;-56
2022/07/24 01:38:50;;;;;;;;;;;;;;;29.80;49.25;98862.69;2074566;28;19940;-55
2022/07/24 01:39:52;;;;;;;;;;;;;;;29.76;49.33;98854.22;2080273;28;19952;-52
2022/07/24 01:40:53;;;;;;;;;;;;;;;29.82;48.93;98853.13;2080914;28;19933;-54
2022/07/24 01:41:54;;;;;;;;;;;;;;;29.82;49.03;98855.84;2082357;28;19990;-56
2022/07/24 01:42:55;;;;;;;;;;;;;;;29.87;48.80;98862.44;2083979;28;19929;-51
2022/07/24 01:43:57;;;;;;;;;;;;;;;29.89;48.93;98860.22;2082625;28;19929;-53
2022/07/24 01:44:57;;;;;;;;;;;;;;;29.88;48.75;98859.41;2083118;28;19924;-56
2022/07/24 01:45:59;;;;;;;;;;;;;;;29.84;48.97;98861.88;2083425;28;19928;-53
2022/07/24 01:46:59;;;;;;;;;;;;;;;29.80;48.92;98862.69;2082703;28;19936;-55
2022/07/24 01:48:01;;;;;;;;;;;;;;;29.82;48.71;98855.03;2080005;28;20417;-52
2022/07/24 01:49:02;;;;;;;;;;;;;;;29.83;48.76;98851.19;2081153;28;19936;-54
2022/07/24 01:50:04;;;;;;;;;;;;;;;29.84;48.68;98848.19;2082469;28;19929;-53
2022/07/24 01:51:05;;;;;;;;;;;;;;;29.86;48.55;98853.38;2083141;28;19935;-53
2022/07/24 01:52:08;;;;;;;;;;;;;;;29.88;48.37;98847.66;2082498;28;19929;-54
2022/07/24 01:53:08;;;;;;;;;;;;;;;29.86;48.32;98850.66;2082592;28;19935;-57
2022/07/24 01:54:10;;;;;;;;;;;;;;;29.86;48.41;98852.56;2076522;28;19939;-53
2022/07/24 01:55:11;;;;;;;;;;;;;;;29.86;48.65;98850.66;2082515;28;19940;-56
2022/07/24 01:56:12;;;;;;;;;;;;;;;29.86;48.52;98845.19;2082991;28;20723;-56
2022/07/24 01:57:13;;;;;;;;;;;;;;;29.87;48.44;98854.22;2081344;28;19924;-53
2022/07/24 01:58:14;;;;;;;;;;;;;;;29.88;48.34;98847.66;2082711;28;20438;-55
2022/07/24 01:59:15;;;;;;;;;;;;;;;29.89;48.41;98849.28;2082804;28;19932;-51
2022/07/24 02:00:17;;;;;;;;;;;;;;;29.90;48.45;98842.75;2082399;28;19933;-53
2022/07/24 02:01:18;;;;;;;;;;;;;;;29.89;48.15;98850.09;2080306;28;19928;-53
2022/07/24 02:02:19;;;;;;;;;;;;;;;29.87;48.50;98846.84;2081636;28;19935;-51
2022/07/24 02:03:20;;;;;;;;;;;;;;;29.86;48.50;98844.38;2081334;28;19929;-54
2022/07/24 02:04:22;;;;;;;;;;;;;;;29.87;48.33;98846.03;2083091;28;20511;-52
2022/07/24 02:05:23;;;;;;;;;;;;;;;29.85;48.34;98840.81;2083170;28;19971;-55
2022/07/24 02:06:24;;;;;;;;;;;;;;;29.90;48.29;98840.81;2082332;28;19940;-56
2022/07/24 02:07:26;;;;;;;;;;;;;;;29.85;48.03;98835.34;2080509;28;20012;-51
2022/07/24 02:08:28;;;;;;;;;;;;;;;29.85;48.12;98838.06;2080912;28;20173;-51
2022/07/24 02:09:28;;;;;;;;;;;;;;;29.78;48.42;98845.72;2075928;28;19937;-52
2022/07/24 02:10:30;;;;;;;;;;;;;;;29.82;48.16;98833.97;2077907;28;21115;-52
2022/07/24 02:11:31;;;;;;;;;;;;;;;29.78;48.19;98837.50;2079709;28;20200;-51
2022/07/24 02:12:33;;;;;;;;;;;;;;;29.82;48.11;98835.91;2082836;28;20006;-52
2022/07/24 02:13:34;;;;;;;;;;;;;;;29.80;48.09;98846.28;2083082;28;20035;-49
2022/07/24 02:14:35;;;;;;;;;;;;;;;29.82;48.00;98836.72;2081385;28;19929;-53
2022/07/24 02:15:37;;;;;;;;;;;;;;;29.81;48.21;98843.28;2083632;28;19929;-52
2022/07/24 02:16:37;;;;;;;;;;;;;;;29.76;48.23;98843.28;2082343;28;19940;-52
2022/07/24 02:17:39;;;;;;;;;;;;;;;29.76;48.18;98840.53;2082835;28;20008;-53
2022/07/24 02:18:39;;;;;;;;;;;;;;;29.78;48.26;98840.25;2077668;28;19935;-53
2022/07/24 02:19:41;;;;;;;;;;;;;;;29.77;48.37;98831.22;2081555;28;19928;-52
2022/07/24 02:20:42;;;;;;;;;;;;;;;29.74;48.25;98839.97;2080835;28;20482;-52
2022/07/24 02:21:43;;;;;;;;;;;;;;;29.79;48.31;98844.66;2082006;28;19940;-52
2022/07/24 02:22:46;;;;;;;;;;;;;;;29.77;48.43;98831.22;2079646;28;20605;-51
2022/07/24 02:23:47;;;;;;;;;;;;;;;29.71;48.47;98831.50;2080388;28;19932;-53
2022/07/24 02:24:48;;;;;;;;;;;;;;;29.70;48.57;98836.16;2076850;28;19932;-52
2022/07/24 02:25:50;;;;;;;;;;;;;;;29.71;48.56;98836.97;2078317;28;20011;-52
2022/07/24 02:26:51;;;;;;;;;;;;;;;29.72;48.41;98833.16;2079588;28;20027;-53
2022/07/24 02:27:52;;;;;;;;;;;;;;;29.76;48.53;98840.53;2081297;28;19956;-53
2022/07/24 02:28:53;;;;;;;;;;;;;;;29.78;48.38;98829.31;2079714;28;19929;-53
2022/07/24 02:29:54;;;;;;;;;;;;;;;29.79;48.54;98833.72;2081408;28;19925;-51
2022/07/24 02:30:55;;;;;;;;;;;;;;;29.78;48.49;98832.03;2077441;28;21189;-52
2022/07/24 02:31:56;;;;;;;;;;;;;;;29.71;48.65;98832.31;2079925;28;20035;-52
2022/07/24 02:32:57;;;;;;;;;;;;;;;29.54;49.32;98832.56;2078694;28;19925;-52
2022/07/24 02:33:58;;;;;;;;;;;;;;;29.57;49.10;98828.47;2081370;28;19929;-53
2022/07/24 02:34:59;;;;;;;;;;;;;;;29.65;48.99;98832.59;2080971;28;19928;-52
2022/07/24 02:36:01;;;;;;;;;;;;;;;29.72;48.87;98819.47;2079847;28;20569;-50
2022/07/24 02:37:01;;;;;;;;;;;;;;;29.72;48.77;98823.03;2081478;28;19933;-52
2022/07/24 02:38:05;;;;;;;;;;;;;;;29.74;48.74;98825.50;2082471;28;19928;-53
2022/07/24 02:39:05;;;;;;;;;;;;;;;29.74;48.82;98825.50;2079462;28;19940;-52
2022/07/24 02:40:08;;;;;;;;;;;;;;;29.75;49.08;98832.59;2080650;28;19935;-52
2022/07/24 02:41:08;;;;;;;;;;;;;;;29.72;48.96;98831.22;2080884;28;19928;-53
2022/07/24 02:42:10;;;;;;;;;;;;;;;29.72;49.13;98827.69;2082263;28;19954;-52
2022/07/24 02:43:11;;;;;;;;;;;;;;;29.67;49.37;98824.94;2080012;28;19929;-52
2022/07/24 02:44:12;;;;;;;;;;;;;;;29.66;49.28;98828.78;2080283;28;20580;-53
2022/07/24 02:45:13;;;;;;;;;;;;;;;29.59;49.53;98818.09;2082028;28;20604;-53
2022/07/24 02:46:15;;;;;;;;;;;;;;;29.62;49.46;98826.56;2081549;28;19929;-53
2022/07/24 02:47:15;;;;;;;;;;;;;;;29.57;49.53;98821.06;2079935;28;19955;-53
2022/07/24 02:48:17;;;;;;;;;;;;;;;29.57;49.53;98823.81;2082871;28;19955;-52
2022/07/24 02:49:18;;;;;;;;;;;;;;;29.58;49.57;98822.72;2077503;28;22191;-57
2022/07/24 02:50:21;;;;;;;;;;;;;;;29.59;49.43;98815.34;2081602;28;19936;-51
2022/07/24 02:51:21;;;;;;;;;;;;;;;29.58;49.42;98817.25;2081433;28;19929;-52
2022/07/24 02:52:23;;;;;;;;;;;;;;;29.57;49.68;98815.63;2080656;28;19931;-52
2022/07/24 02:53:25;;;;;;;;;;;;;;;29.62;49.41;98812.06;2089946;28;19928;-52
2022/07/24 02:54:27;;;;;;;;;;;;;;;29.62;49.48;98818.34;2079537;28;19929;-52
2022/07/24 02:55:28;;;;;;;;;;;;;;;29.62;49.53;98818.34;2077546;28;19929;-53
2022/07/24 02:56:29;;;;;;;;;;;;;;;29.58;49.52;98817.25;2078752;28;19931;-53
2022/07/24 02:57:30;;;;;;;;;;;;;;;29.56;49.49;98811.25;2081615;28;19928;-53
2022/07/24 02:58:32;;;;;;;;;;;;;;;29.57;49.50;98818.34;2080509;28;19928;-51
2022/07/24 02:59:32;;;;;;;;;;;;;;;29.51;49.75;98819.44;2081436;28;20048;-52
2022/07/24 03:00:34;;;;;;;;;;;;;;;29.58;49.27;98821.88;2081894;28;20777;-51
2022/07/24 03:01:34;;;;;;;;;;;;;;;29.65;49.51;98821.69;2081093;28;19925;-52
2022/07/24 03:02:36;;;;;;;;;;;;;;;29.64;49.21;98823.56;2081269;28;21044;-53
2022/07/24 03:03:37;;;;;;;;;;;;;;;29.68;49.31;98821.13;2079587;28;20358;-53
2022/07/24 03:04:38;;;;;;;;;;;;;;;29.68;49.28;98827.41;2082716;28;19931;-49
2022/07/24 03:05:40;;;;;;;;;;;;;;;29.68;49.46;98827.41;2081342;28;19928;-52
2022/07/24 03:06:41;;;;;;;;;;;;;;;29.70;49.08;98827.97;2078834;28;19929;-52
2022/07/24 03:07:42;;;;;;;;;;;;;;;29.73;49.25;98829.34;2081654;28;19968;-52
2022/07/24 03:08:44;;;;;;;;;;;;;;;29.73;48.99;98819.22;2079037;28;19933;-53
2022/07/24 03:09:46;;;;;;;;;;;;;;;29.74;49.16;98820.84;2076497;28;19948;-53
2022/07/24 03:10:47;;;;;;;;;;;;;;;29.75;49.08;98821.66;2079352;28;19951;-53
2022/07/24 03:11:48;;;;;;;;;;;;;;;29.77;48.92;98816.75;2081769;28;19931;-52
2022/07/24 03:12:49;;;;;;;;;;;;;;;29.78;49.06;98815.66;2078844;28;19933;-59
2022/07/24 03:13:50;;;;;;;;;;;;;;;29.78;48.95;98821.97;2082264;28;20039;-54
2022/07/24 03:14:51;;;;;;;;;;;;;;;29.80;48.90;98819.75;2078381;28;19940;-53
2022/07/24 03:15:53;;;;;;;;;;;;;;;29.77;48.89;98825.75;2079346;28;19935;-54
2022/07/24 03:16:53;;;;;;;;;;;;;;;29.79;48.99;98822.78;2081099;28;20095;-54
2022/07/24 03:17:56;;;;;;;;;;;;;;;29.79;48.75;98826.31;2080672;28;19936;-54
2022/07/24 03:18:57;;;;;;;;;;;;;;;29.80;48.86;98821.66;2078627;28;19928;-53
2022/07/24 03:20:00;;;;;;;;;;;;;;;29.81;48.90;98826.88;2081560;28;19928;-52
2022/07/24 03:21:00;;;;;;;;;;;;;;;29.82;48.91;98822.22;2080178;28;19933;-54
2022/07/24 03:22:02;;;;;;;;;;;;;;;29.80;48.95;98825.22;2081039;28;20594;-55
2022/07/24 03:23:04;;;;;;;;;;;;;;;29.82;48.91;98830.44;2077336;28;19939;-53
2022/07/24 03:24:06;;;;;;;;;;;;;;;29.79;48.93;98823.59;2078116;28;20412;-55
2022/07/24 03:25:08;;;;;;;;;;;;;;;29.80;49.13;98825.22;2074550;28;19928;-53
2022/07/24 03:26:09;;;;;;;;;;;;;;;29.78;49.04;98824.69;2080682;28;20031;-53
2022/07/24 03:27:10;;;;;;;;;;;;;;;29.75;49.26;98822.47;2080333;28;19932;-53
2022/07/24 03:28:11;;;;;;;;;;;;;;;29.75;49.19;98827.13;2081241;28;19933;-54
2022/07/24 03:29:12;;;;;;;;;;;;;;;29.75;49.32;98825.22;2080051;28;19928;-53
2022/07/24 03:30:13;;;;;;;;;;;;;;;29.75;49.34;98821.66;2080874;28;19974;-53
2022/07/24 03:31:15;;;;;;;;;;;;;;;29.74;49.25;98825.50;2081261;28;21852;-54
2022/07/24 03:32:15;;;;;;;;;;;;;;;29.77;49.12;98822.22;2080794;28;19992;-53
2022/07/24 03:33:17;;;;;;;;;;;;;;;29.79;49.19;98823.59;2078711;28;20036;-53
2022/07/24 03:34:18;;;;;;;;;;;;;;;29.78;49.10;98815.66;2082060;28;20278;-53
2022/07/24 03:35:19;;;;;;;;;;;;;;;29.75;49.19;98814.28;2081745;28;19933;-54
2022/07/24 03:36:21;;;;;;;;;;;;;;;29.75;49.21;98814.28;2079536;28;20290;-55
2022/07/24 03:37:21;;;;;;;;;;;;;;;29.75;49.39;98816.19;2081295;28;19940;-53
2022/07/24 03:38:23;;;;;;;;;;;;;;;29.65;49.24;98824.41;2081597;28;19929;-53
2022/07/24 03:39:25;;;;;;;;;;;;;;;29.64;49.39;98809.91;2073796;28;21574;-56
2022/07/24 03:40:27;;;;;;;;;;;;;;;29.68;49.24;98821.13;2078535;28;19932;-52
2022/07/24 03:41:27;;;;;;;;;;;;;;;29.69;49.25;98817.28;2080136;28;19982;-53
2022/07/24 03:42:29;;;;;;;;;;;;;;;29.67;49.17;98822.19;2082138;28;20624;-54
2022/07/24 03:43:30;;;;;;;;;;;;;;;29.69;49.28;98817.28;2082250;28;19932;-54
2022/07/24 03:44:31;;;;;;;;;;;;;;;29.67;49.19;98827.66;2080326;28;19939;-53
2022/07/24 03:45:32;;;;;;;;;;;;;;;29.65;49.30;98821.69;2082137;28;19938;-55
2022/07/24 03:46:34;;;;;;;;;;;;;;;29.66;49.37;98818.66;2081369;28;19972;-53
2022/07/24 03:47:34;;;;;;;;;;;;;;;29.64;49.26;98828.22;2081132;28;19932;-54
2022/07/24 03:48:36;;;;;;;;;;;;;;;29.63;48.99;98827.41;2090157;28;19936;-54
2022/07/24 03:49:36;;;;;;;;;;;;;;;29.65;49.16;98830.69;2089828;28;20002;-53
2022/07/24 03:50:38;;;;;;;;;;;;;;;29.68;49.30;98824.69;2088028;28;19936;-51
2022/07/24 03:51:39;;;;;;;;;;;;;;;29.69;49.24;98826.31;2087606;28;20019;-54
2022/07/24 03:52:40;;;;;;;;;;;;;;;29.71;49.15;98828.78;2089621;28;19929;-53
2022/07/24 03:53:41;;;;;;;;;;;;;;;29.69;49.42;98831.78;2085265;28;20346;-53
2022/07/24 03:54:44;;;;;;;;;;;;;;;29.68;49.21;98832.06;2090192;28;19968;-51
2022/07/24 03:55:46;;;;;;;;;;;;;;;29.68;49.29;98832.88;2089555;28;19935;-54
2022/07/24 03:56:46;;;;;;;;;;;;;;;29.68;49.22;98829.31;2091657;28;19929;-54
2022/07/24 03:57:48;;;;;;;;;;;;;;;29.70;49.06;98835.31;2090721;28;20582;-54
2022/07/24 03:58:49;;;;;;;;;;;;;;;29.71;49.13;98831.50;2091162;28;20408;-54
2022/07/24 03:59:52;;;;;;;;;;;;;;;29.74;49.07;98836.44;2090761;28;19982;-53
2022/07/24 04:00:52;;;;;;;;;;;;;;;29.75;49.31;98832.59;2091267;28;19998;-52
2022/07/24 04:01:54;;;;;;;;;;;;;;;29.75;49.41;98832.59;2091328;28;20460;-53
2022/07/24 04:02:55;;;;;;;;;;;;;;;29.75;49.37;98827.94;2089699;28;19928;-53
2022/07/24 04:03:58;;;;;;;;;;;;;;;29.73;49.46;98835.63;2091536;28;19933;-52
2022/07/24 04:04:59;;;;;;;;;;;;;;;29.70;49.52;98830.69;2090845;28;19967;-51
2022/07/24 04:06:00;;;;;;;;;;;;;;;29.69;49.57;98829.03;2090370;28;19932;-54
2022/07/24 04:07:02;;;;;;;;;;;;;;;29.68;49.71;98832.06;2086306;28;21998;-51
2022/07/24 04:08:02;;;;;;;;;;;;;;;29.67;49.69;98835.88;2085843;28;19935;-52
2022/07/24 04:09:05;;;;;;;;;;;;;;;29.67;49.73;98833.97;2084738;28;19924;-52
2022/07/24 04:10:08;;;;;;;;;;;;;;;29.67;49.97;98831.25;2087644;28;20515;-53
2022/07/24 04:11:09;;;;;;;;;;;;;;;29.62;50.19;98834.75;2090496;28;19928;-53
2022/07/24 04:12:10;;;;;;;;;;;;;;;29.62;49.89;98837.50;2090419;28;20018;-53
2022/07/24 04:13:12;;;;;;;;;;;;;;;29.61;50.11;98833.13;2086620;28;19928;-54
2022/07/24 04:14:13;;;;;;;;;;;;;;;29.63;50.03;98841.06;2077735;28;20490;-52
2022/07/24 04:15:14;;;;;;;;;;;;;;;29.60;50.05;98834.19;2090587;28;19952;-53
2022/07/24 04:16:15;;;;;;;;;;;;;;;29.61;50.15;98841.31;2088876;28;20006;-52
2022/07/24 04:17:17;;;;;;;;;;;;;;;29.61;50.18;98841.31;2089520;28;20753;-54
2022/07/24 04:18:17;;;;;;;;;;;;;;;29.62;50.20;98839.41;2090468;28;19940;-53
2022/07/24 04:19:19;;;;;;;;;;;;;;;29.59;50.02;98846.22;2090583;28;20323;-52
2022/07/24 04:20:20;;;;;;;;;;;;;;;29.58;50.10;98847.31;2090864;28;19992;-54
2022/07/24 04:21:21;;;;;;;;;;;;;;;29.59;50.09;98843.50;2091949;28;19928;-54
2022/07/24 04:22:22;;;;;;;;;;;;;;;29.59;50.05;98843.50;2086800;28;19939;-54
2022/07/24 04:23:23;;;;;;;;;;;;;;;29.58;50.25;98844.56;2089702;28;19952;-55
2022/07/24 04:24:24;;;;;;;;;;;;;;;29.59;50.12;98848.16;2090139;28;19932;-53
2022/07/24 04:25:27;;;;;;;;;;;;;;;29.57;49.93;98844.84;2089051;28;19970;-54
2022/07/24 04:26:27;;;;;;;;;;;;;;;29.54;50.17;98851.69;2090379;28;19932;-53
2022/07/24 04:27:29;;;;;;;;;;;;;;;29.56;50.04;98854.13;2089426;28;20175;-54
2022/07/24 04:28:30;;;;;;;;;;;;;;;29.59;49.84;98851.69;2091249;28;20428;-54
2022/07/24 04:29:31;;;;;;;;;;;;;;;29.62;49.86;98851.16;2092127;28;19925;-53
2022/07/24 04:30:32;;;;;;;;;;;;;;;29.60;50.04;98849.78;2090432;28;19928;-53
2022/07/24 04:31:34;;;;;;;;;;;;;;;29.63;49.96;98852.00;2090922;28;19970;-55
2022/07/24 04:32:34;;;;;;;;;;;;;;;29.61;50.07;98852.25;2091554;28;19924;-53
2022/07/24 04:33:36;;;;;;;;;;;;;;;29.60;50.00;98855.25;2091842;28;20034;-55
2022/07/24 04:34:37;;;;;;;;;;;;;;;29.62;49.97;98851.16;2090732;28;19975;-53
2022/07/24 04:35:38;;;;;;;;;;;;;;;29.62;49.97;98850.34;2089816;28;19955;-54
2022/07/24 04:36:39;;;;;;;;;;;;;;;29.62;49.92;98856.63;2087008;28;20319;-54
2022/07/24 04:37:40;;;;;;;;;;;;;;;29.62;50.07;98851.16;2088270;28;20019;-54
2022/07/24 04:38:41;;;;;;;;;;;;;;;29.65;50.17;98860.75;2090877;28;20287;-55
2022/07/24 04:39:43;;;;;;;;;;;;;;;29.63;50.09;98857.47;2091725;28;19943;-53
2022/07/24 04:40:44;;;;;;;;;;;;;;;29.64;50.18;98858.28;2089708;28;19985;-49
2022/07/24 04:41:46;;;;;;;;;;;;;;;29.66;50.07;98858.84;2091001;28;20394;-53
2022/07/24 04:42:47;;;;;;;;;;;;;;;29.66;49.91;98862.38;2090114;28;19925;-53
2022/07/24 04:43:49;;;;;;;;;;;;;;;29.68;49.94;98853.94;2091854;28;19955;-51
2022/07/24 04:44:51;;;;;;;;;;;;;;;29.69;49.87;98852.81;2090534;28;20486;-53
2022/07/24 04:45:51;;;;;;;;;;;;;;;29.68;49.93;98854.75;2091123;28;20546;-50
2022/07/24 04:46:53;;;;;;;;;;;;;;;29.70;49.88;98857.19;2089443;28;19929;-52
2022/07/24 04:47:53;;;;;;;;;;;;;;;29.70;49.91;98858.03;2086187;28;19924;-52
2022/07/24 04:48:55;;;;;;;;;;;;;;;29.70;50.07;98860.78;2087723;28;19929;-51
2022/07/24 04:49:55;;;;;;;;;;;;;;;29.69;50.15;98859.09;2090988;28;19928;-53
2022/07/24 04:50:57;;;;;;;;;;;;;;;29.69;49.96;98856.38;2090194;28;19936;-54
2022/07/24 04:51:57;;;;;;;;;;;;;;;29.68;50.20;98857.47;2086240;28;19928;-53
2022/07/24 04:52:59;;;;;;;;;;;;;;;29.67;50.08;98855.00;2091048;28;19929;-52
2022/07/24 04:54:00;;;;;;;;;;;;;;;29.67;50.09;98857.72;2090432;28;19932;-53
2022/07/24 04:55:01;;;;;;;;;;;;;;;29.65;50.08;98855.28;2091434;28;19935;-53
2022/07/24 04:56:04;;;;;;;;;;;;;;;29.65;50.17;98854.47;2090313;28;19939;-52
2022/07/24 04:57:05;;;;;;;;;;;;;;;29.66;50.10;98859.66;2089832;28;20114;-53
2022/07/24 04:58:06;;;;;;;;;;;;;;;29.66;50.02;98858.84;2091157;28;19925;-55
2022/07/24 04:59:08;;;;;;;;;;;;;;;29.66;50.12;98859.66;2090656;28;19954;-52
2022/07/24 05:00:10;;;;;;;;;;;;;;;29.66;50.15;98859.66;2083782;28;19933;-53
2022/07/24 05:01:12;;;;;;;;;;;;;;;29.65;50.18;98857.22;2081908;28;19928;-54
2022/07/24 05:02:12;;;;;;;;;;;;;;;29.69;50.14;98861.03;2089985;28;19931;-51
2022/07/24 05:03:14;;;;;;;;;;;;;;;29.69;49.88;98866.50;2090384;28;20007;-53
2022/07/24 05:04:14;;;;;;;;;;;;;;;29.69;50.14;98863.75;2087930;28;20558;-53
2022/07/24 05:05:16;;;;;;;;;;;;;;;29.69;49.94;98858.28;2086181;28;19925;-54
2022/07/24 05:06:17;;;;;;;;;;;;;;;29.68;50.02;98865.69;2084224;28;19960;-54
2022/07/24 05:07:19;;;;;;;;;;;;;;;29.70;50.18;98863.50;2086324;28;19928;-54
2022/07/24 05:08:19;;;;;;;;;;;;;;;29.69;50.17;98864.56;2083519;28;19928;-52
2022/07/24 05:09:21;;;;;;;;;;;;;;;29.71;50.27;98864.31;2085431;28;20039;-54
2022/07/24 05:10:21;;;;;;;;;;;;;;;29.73;50.17;98862.13;2083708;28;20493;-53
2022/07/24 05:11:24;;;;;;;;;;;;;;;29.70;50.14;98863.50;2090394;28;20019;-53
2022/07/24 05:12:25;;;;;;;;;;;;;;;29.70;49.99;98859.91;2089065;28;19932;-51
2022/07/24 05:13:27;;;;;;;;;;;;;;;29.72;50.22;98863.22;2089680;28;22908;-54
2022/07/24 05:14:27;;;;;;;;;;;;;;;29.70;50.28;98863.50;2090318;28;19959;-53
2022/07/24 05:15:29;;;;;;;;;;;;;;;29.70;50.57;98868.97;2090002;28;19928;-54
2022/07/24 05:16:30;;;;;;;;;;;;;;;29.66;50.08;98867.03;2090679;28;20277;-53
2022/07/24 05:17:31;;;;;;;;;;;;;;;29.46;50.45;98868.59;2090715;28;20007;-54
2022/07/24 05:18:32;;;;;;;;;;;;;;;29.43;50.68;98858.22;2090823;28;19929;-52
2022/07/24 05:19:34;;;;;;;;;;;;;;;29.45;50.50;98860.66;2090303;28;20393;-54